Ship Status Report: callsign BATEU06

sailwx.info

Track history (hours):
 
Tides and Currents Weather Stations Pressure Air Temp Water Temp Dewpoint Dewpoint Depression Visibility Wind Speed Wind Dir Waves Ship Positions

Callsign BATEU06 (name unknown)

Last reported at 2017-Jan-23 16:00 UTC. Time now 2017-Jan-23 16:58 UTC.
Position N 46°06' W 053°30'.

Wind from 340 at 19 knots

Barometer 1012.0 mb
Air temperature -4.8 ° C
Dewpoint -12.0 ° C
Water temperature 1.4 ° C

Date/timePositionNaut miles runAvg speedWind from/ knotsBaromVisibWave heightAir tempDewpointWater temp
2017-Jan-23 16:00N 46°06' W 053°30'4 4.2 340 / 191012.0 -4.8-12.0 1.4
2017-Jan-23 15:00N 46°06' W 053°36'8 8.3 340 / 261012.0 -4.3-10.3 1.4
2017-Jan-23 14:00N 46°06' W 053°48'2210.8 340 / 211012.2 -4.8-11.0 1.2
2017-Jan-23 12:00N 46°12' W 054°18'1010.2 340 / 161011.5 -4.3-9.3 1.7
2017-Jan-23 11:00N 46°18' W 054°30'8 8.3 330 / 141010.9 -4.0-9.2 1.5
2017-Jan-23 10:00N 46°18' W 054°42'8 8.3 330 / 131010.4 -4.1-5.8 2.0
2017-Jan-23 09:00N 46°18' W 054°54'1010.2 320 / 71010.0 -2.8-7.0 2.2
2017-Jan-23 08:00N 46°24' W 055°06'8 8.3 330 / 61010.1 -2.8-6.8 1.9
2017-Jan-23 07:00N 46°24' W 055°18'8 8.3 340 / 71009.7 -2.8-6.8 2.2
2017-Jan-23 06:00N 46°24' W 055°30'1010.2 340 / 91009.8 -2.5-6.1 2.4
2017-Jan-23 05:00N 46°30' W 055°42'8 8.3 010 / 81009.2 -2.3-7.3 2.4
2017-Jan-23 04:00N 46°30' W 055°54'8 8.3 010 / 81009.4 -2.1-5.6 2.4
2017-Jan-23 03:00N 46°30' W 056°06'1010.2 020 / 81009.7 -1.8-5.1 2.4
2017-Jan-23 02:00N 46°36' W 056°18'8 8.2 020 / 91009.1 -1.3-5.1 2.5
2017-Jan-23 01:00N 46°36' W 056°30'1010.2 030 / 101009.0 -1.2-4.7 2.7
2017-Jan-23 00:00N 46°42' W 056°42'8 8.2 040 / 121008.5 -0.8-4.3 2.7
2017-Jan-22 23:00N 46°42' W 056°54'1010.2 040 / 111008.2 -0.8-4.8 2.9
2017-Jan-22 22:00N 46°48' W 057°06'8 8.2 010 / 91007.6 -1.6-4.3 3.0
2017-Jan-22 21:00N 46°48' W 057°18'1010.2 010 / 91006.7 -2.0-4.7 3.2
2017-Jan-22 20:00N 46°54' W 057°30'1413.7 020 / 91006.2 -2.2-5.0 3.2
2017-Jan-22 19:00N 47°00' W 057°48'1413.7 1005.7 -2.2-5.2 3.2
2017-Jan-22 18:00N 47°06' W 058°06'1212.3 350 / 91005.6 -1.8-4.3 3.2
2017-Jan-22 17:00N 47°06' W 058°24'1413.6 350 / 91005.4 -1.7-4.3 3.4
2017-Jan-22 16:00N 47°12' W 058°42'1413.6 330 / 91005.6 -1.8-3.8 3.4
2017-Jan-22 15:00N 47°18' W 059°00'1010.1 350 / 71005.7 -1.8-3.3 3.2
2017-Jan-22 14:00N 47°24' W 059°12'1717.3 340 / 101005.5 -1.2-3.3 3.7
2017-Jan-22 13:00N 47°30' W 059°36'1413.5 1005.4 -1.6-3.2 2.7
2017-Jan-22 12:00N 47°36' W 059°54'1413.5 020 / 101004.2 -1.1-2.3 2.7
2017-Jan-22 11:00N 47°42' W 060°12'1413.5 360 / 81003.8 -1.0-2.3 3.0
2017-Jan-22 10:00N 47°48' W 060°30'1010.0 360 / 81003.5 -1.3-2.3 2.9
2017-Jan-22 09:00N 47°54' W 060°42'1313.5 340 / 81003.6 -1.5-2.8 2.5
2017-Jan-22 08:00N 48°00' W 061°00'1313.4 340 / 91003.4 -1.8-3.2 1.7
2017-Jan-22 07:00N 48°06' W 061°18'1717.0 340 / 91003.2 -2.0-2.7 1.9
2017-Jan-22 06:00N 48°18' W 061°36'1313.4 340 / 81002.7 -2.3-3.1 1.5
2017-Jan-22 05:00N 48°24' W 061°54'2311.6 350 / 81002.9 -2.3-3.6 1.9
2017-Jan-22 03:00N 48°36' W 062°24'1313.3 340 / 51003.3 -1.8-4.6 1.2
2017-Jan-22 02:00N 48°42' W 062°42'1313.3 330 / 91003.2 -1.8-4.3 1.2
2017-Jan-22 01:00N 48°48' W 063°00'1313.3 320 / 91003.4 -1.7-4.5 1.7
2017-Jan-22 00:00N 48°54' W 063°18'1716.8 330 / 91003.5 -2.0-4.5 1.0
2017-Jan-21 23:00N 49°06' W 063°36'1313.2 320 / 91003.6 -2.2-4.5 1.4
2017-Jan-21 22:00N 49°12' W 063°54'1313.2 330 / 71003.5 -2.3-4.8 0.9
2017-Jan-21 21:00N 49°18' W 064°12'1211.7 340 / 31003.7 -2.6-4.8 0.7
2017-Jan-21 20:00N 49°18' W 064°30'2814.0 300 / 21003.7 -2.7-5.2 0.9
2017-Jan-21 18:00N 49°24' W 065°12'1615.6 180 / 21003.5 -2.3-4.8 0.9
2017-Jan-21 17:00N 49°24' W 065°36'1211.7 120 / 61003.9 -2.3-4.0 0.9
2017-Jan-21 16:00N 49°24' W 065°54'1716.7 140 / 31005.0 -2.3-3.5 1.4
2017-Jan-21 15:00N 49°18' W 066°18'2412.1 250 / 71006.4 -1.8-2.3 0.9
2017-Jan-21 13:00N 49°12' W 066°54'1313.2 270 / 21006.9 -1.8-2.5 0.9
2017-Jan-21 12:00N 49°06' W 067°12'1716.8 060 / 41007.0 -1.5-3.3 0.7
2017-Jan-21 11:00N 49°00' W 067°36'10 9.9 170 / 111006.9 -1.5-3.5 1.0
2017-Jan-21 10:00N 48°54' W 067°48'1313.3 200 / 121007.6 -1.0-3.3 1.2
2017-Jan-21 09:00N 48°48' W 068°06'1313.3 160 / 101008.5 -1.0-3.7 1.2
2017-Jan-21 08:00N 48°42' W 068°24'1313.3 180 / 121009.2 -0.3-3.3 2.2
2017-Jan-21 07:00N 48°36' W 068°42'1716.9 160 / 151009.0 -0.5-3.7 2.5
2017-Jan-21 06:00N 48°24' W 069°00'1313.4 150 / 91009.1 0.4-2.7 2.4
2017-Jan-21 05:00N 48°18' W 069°18'1010.0 150 / 121009.2 0.2-2.6 2.2
2017-Jan-21 04:00N 48°12' W 069°30'2019.7 170 / 141009.7 -0.1-1.8 2.4
2017-Jan-21 03:00N 47°54' W 069°42'2221.7 180 / 141009.8 -0.7-2.0 1.2
2017-Jan-21 02:00N 47°36' W 070°00'1717.1 270 / 61010.7 -0.8-2.7 1.5
2017-Jan-21 01:00N 47°24' W 070°18'1717.1 330 / 21011.2 -1.0-2.1 1.2
2017-Jan-21 00:00N 47°12' W 070°36'1514.5 210 / 51012.2 -0.5-1.5 1.4
2017-Jan-20 23:00N 47°00' W 070°48'2020.3 020 / 11012.6 -0.3-1.3 1.5
2017-Jan-20 22:00N 46°48' W 071°12'1413.7 010 / 21012.7 0.4-1.3 1.5
2017-Jan-20 21:00N 46°42' W 071°30'1212.3 070 / 51012.1 0.5-1.6 1.5
2017-Jan-20 20:00N 46°42' W 071°48'1413.7 090 / 61012.1 0.9-2.1 1.5
2017-Jan-20 19:00N 46°36' W 072°06'1717.2 060 / 21012.8 0.4-0.8 1.7
2017-Jan-20 18:00N 46°24' W 072°24'1010.2 320 1013.3 0.5-0.3 1.7
2017-Jan-20 17:00N 46°18' W 072°36'1010.2 110 / 11013.8 0.9 0.2 1.7
2017-Jan-20 16:00N 46°12' W 072°48'2512.3 090 / 51014.4 -0.0-0.3 1.7
2017-Jan-20 14:00N 45°54' W 073°12'2211.0 080 / 31014.6 0.4-0.3 1.7
2017-Jan-20 12:00N 45°36' W 073°30'   150 / 21014.7 1.2-0.1 1.9
2017-Jan-17 11:00N 45°36' W 073°30'2211.0 210 / 11023.2 -1.5-4.5 1.7
2017-Jan-17 09:00N 45°54' W 073°12'1312.7 010 / 11022.6 -0.7-3.8 1.5
2017-Jan-17 08:00N 46°06' W 073°06'1010.3 250 / 61021.8 -1.0-3.8 1.5
2017-Jan-17 07:00N 46°12' W 072°54'14 6.9 270 / 121021.5 -0.8-3.8 1.5
2017-Jan-17 05:00N 46°18' W 072°36'1010.2 250 / 81021.0 -0.5-4.0 1.5
2017-Jan-17 04:00N 46°24' W 072°24'1010.2 240 / 81020.5 -0.3-4.8 1.5
2017-Jan-17 03:00N 46°30' W 072°12'1010.2 240 / 121019.7 -0.0-4.6 1.7
2017-Jan-17 02:00N 46°36' W 072°00'1212.4 240 / 151019.4 0.2-3.8 1.7
2017-Jan-17 01:00N 46°36' W 071°42'2411.9 250 / 151019.2 0.4-4.2 1.9
2017-Jan-16 23:00N 46°48' W 071°12'2020.3 260 / 151017.8 -0.8-4.8 2.7
2017-Jan-16 22:00N 47°00' W 070°48'1514.5 220 / 181015.9 -1.8-5.5 2.9
2017-Jan-16 21:00N 47°12' W 070°36'5317.7 190 / 331012.1 -2.0-5.5 2.4
2017-Jan-16 18:00N 47°54' W 069°48'1414.4 200 / 361009.3 -4.0-6.1 3.0
2017-Jan-16 17:00N 48°06' W 069°36'1414.4 200 / 401008.4 -4.5-6.3 3.9
2017-Jan-16 16:00N 48°18' W 069°24'2713.4 220 / 281014.0 -5.0-7.7 3.4
2017-Jan-16 14:00N 48°36' W 068°54'10 9.9 220 / 371012.5 -7.1-10.3 2.2
2017-Jan-16 13:00N 48°42' W 068°42'1313.3 210 / 251014.5 -7.8-11.2 2.4
2017-Jan-16 12:00N 48°48' W 068°24'1313.3 210 / 301017.2 -11.3-13.6 1.2
2017-Jan-16 11:00N 48°54' W 068°06'1313.3 180 / 171019.9 -11.8-14.3 1.4
2017-Jan-16 10:00N 49°00' W 067°48'1716.8 220 / 191021.0 -11.3-13.8 1.7
2017-Jan-16 09:00N 49°12' W 067°30'1716.8 230 / 121022.6 -13.2-16.5 1.5
2017-Jan-16 08:00N 49°18' W 067°06'3215.9 260 / 151023.4 -14.0-16.8 1.2
2017-Jan-16 06:00N 49°24' W 066°18'3115.6 250 / 211022.6 -13.3-17.8 1.7
2017-Jan-16 04:00N 49°24' W 065°30'1615.6 290 / 191023.2 -12.6-17.1 2.0
2017-Jan-16 03:00N 49°24' W 065°06'1615.6 300 / 201023.7 -12.2-17.0 1.9
2017-Jan-16 02:00N 49°24' W 064°42'2019.5 320 / 181023.7 -11.8-15.3 2.0
2017-Jan-16 01:00N 49°24' W 064°12'1716.7 320 / 191022.8 -11.8-15.3 1.9
2017-Jan-16 00:00N 49°18' W 063°48'1716.8 330 / 181022.0 -12.5-16.5 1.7
2017-Jan-15 23:00N 49°06' W 063°30'8617.2 340 / 221021.4 -12.1-15.6 1.9
2017-Jan-15 18:00N 48°24' W 061°36'2020.0 330 / 231013.8 -8.3-14.3 2.4
2017-Jan-15 17:00N 48°12' W 061°12'1717.1 320 / 201012.3 -8.6-10.8 2.9
2017-Jan-15 16:00N 48°06' W 060°48'2020.0 290 / 151011.7 -8.0-12.7 3.2
2017-Jan-15 15:00N 47°54' W 060°24'1313.5 290 / 231011.3 -7.6-11.1 3.9
2017-Jan-15 14:00N 47°48' W 060°06'2020.1 260 / 201013.6 -6.8-9.0 4.0
2017-Jan-15 13:00N 47°36' W 059°42'1717.3 220 / 131014.5 -6.3-8.7 3.9
2017-Jan-15 12:00N 47°30' W 059°18'1413.6 210 / 141015.2 -7.3-10.1 3.9
2017-Jan-15 11:00N 47°24' W 059°00'1717.3 220 / 151015.6 -7.3-10.6 4.2
2017-Jan-15 10:00N 47°18' W 058°36'1413.6 220 / 151016.3 -6.8-9.8 4.2
2017-Jan-15 09:00N 47°12' W 058°18'1717.4 230 / 171017.0 -6.2-10.6 4.2
2017-Jan-15 08:00N 47°06' W 057°54'1413.7 240 / 191017.3 -6.1-12.0 4.2
2017-Jan-15 07:00N 47°00' W 057°36'1717.4 270 / 251017.8 -6.0-10.3 4.2
2017-Jan-15 06:00N 46°54' W 057°12'1717.5 270 / 261017.7 -6.1-11.3 4.4
2017-Jan-15 05:00N 46°48' W 056°48'1717.2 270 / 261017.8 -6.5-11.8 4.2
2017-Jan-15 04:00N 46°36' W 056°30'1817.6 280 / 311017.7 -6.2-11.1 4.0
2017-Jan-15 03:00N 46°30' W 056°06'1716.5 280 / 271017.3 -5.8-12.7 3.9
2017-Jan-15 02:00N 46°30' W 055°42'1413.8 270 / 271017.5 -5.8-12.0 3.9
2017-Jan-15 01:00N 46°24' W 055°24'3014.8 280 / 261018.1 -6.3-10.8 3.7
2017-Jan-14 23:00N 46°18' W 054°42'1817.6 290 / 351016.9 -5.8-12.2 3.2
2017-Jan-14 22:00N 46°12' W 054°18'1212.5 290 / 341016.2 -6.2-11.1 3.2
2017-Jan-14 21:00N 46°12' W 054°00'1817.7 290 / 371015.2 -6.7-12.7 3.0
2017-Jan-14 20:00N 46°06' W 053°36'1212.5 290 / 401014.9 -6.3-11.8 3.2
2017-Jan-14 19:00N 46°06' W 053°18'1413.9 280 / 411013.0 -6.3-11.0 2.9
2017-Jan-14 18:00N 46°00' W 053°00'7114.2 290 / 361013.3 -5.5-10.8 4.2
2017-Jan-14 13:00N 46°00' W 051°18'1312.5 290 / 351012.6 -3.8-10.2 4.4
2017-Jan-14 12:00N 46°00' W 051°00'1716.7 280 / 361011.3 -3.3-9.3 4.2
2017-Jan-14 11:00N 46°00' W 050°36'1413.9 280 / 381009.7 -2.8-8.2 4.0
2017-Jan-14 10:00N 46°06' W 050°18'1716.6 290 / 421007.8 -2.3-8.8 3.7
2017-Jan-14 09:00N 46°06' W 049°54'3014.9 280 / 401006.5 -1.8-7.7 3.4
2017-Jan-14 07:00N 46°12' W 049°12'1716.6 280 / 381003.1 0.7 0.5 3.2
2017-Jan-14 06:00N 46°12' W 048°48'1716.6 260 / 241003.6 2.7 2.5 2.9
2017-Jan-14 05:00N 46°12' W 048°24'1716.6 230 / 221004.1 2.9 2.9 2.9
2017-Jan-14 04:00N 46°12' W 048°00'1212.5 220 / 201005.2 2.7 2.7 2.7
2017-Jan-14 03:00N 46°12' W 047°42'1817.6 200 / 161006.7 3.2 3.0 2.7
2017-Jan-14 02:00N 46°18' W 047°18'1716.6 190 / 161008.3 4.4 4.4 2.5
2017-Jan-14 01:00N 46°18' W 046°54'1716.6 200 / 171010.0 6.0 5.9 5.4
2017-Jan-14 00:00N 46°18' W 046°30'1716.6 200 / 161011.6 6.4 6.2 6.0
2017-Jan-13 23:00N 46°18' W 046°06'1716.6 190 / 151012.9 6.5 5.9 6.0
2017-Jan-13 22:00N 46°18' W 045°42'1716.6 190 / 141014.7 6.2 4.9 5.4
2017-Jan-13 21:00N 46°18' W 045°18'1716.6 200 / 181015.2 6.2 3.9 6.4
2017-Jan-13 20:00N 46°18' W 044°54'3014.8 230 / 201016.0 6.5 3.2 6.9
2017-Jan-13 18:00N 46°24' W 044°12'1817.6 250 / 121017.0 5.2 5.2 8.2
2017-Jan-13 17:00N 46°30' W 043°48'1716.5 280 / 141017.5 5.7 5.4 7.9
2017-Jan-13 16:00N 46°30' W 043°24'   280 / 101018.0 6.0 5.9 8.2
Track history (hours):
 
Tides and Currents Weather Stations Pressure Air Temp Water Temp Dewpoint Dewpoint Depression Visibility Wind Speed Wind Dir Waves Ship Positions

Callsign BATEU06 (name unknown)

Last reported at 2017-Jan-23 16:00 UTC. Time now 2017-Jan-23 16:58 UTC.
Position N 46°06' W 053°30'.

Wind from 340 at 19 knots

Barometer 1012.0 mb
Air temperature -4.8 ° C
Dewpoint -12.0 ° C
Water temperature 1.4 ° C

Date/timePositionNaut miles runAvg speedWind from/ knotsBaromVisibWave heightAir tempDewpointWater temp
2017-Jan-23 16:00N 46°06' W 053°30'4 4.2 340 / 191012.0 -4.8-12.0 1.4
2017-Jan-23 15:00N 46°06' W 053°36'8 8.3 340 / 261012.0 -4.3-10.3 1.4
2017-Jan-23 14:00N 46°06' W 053°48'2210.8 340 / 211012.2 -4.8-11.0 1.2
2017-Jan-23 12:00N 46°12' W 054°18'1010.2 340 / 161011.5 -4.3-9.3 1.7
2017-Jan-23 11:00N 46°18' W 054°30'8 8.3 330 / 141010.9 -4.0-9.2 1.5
2017-Jan-23 10:00N 46°18' W 054°42'8 8.3 330 / 131010.4 -4.1-5.8 2.0
2017-Jan-23 09:00N 46°18' W 054°54'1010.2 320 / 71010.0 -2.8-7.0 2.2
2017-Jan-23 08:00N 46°24' W 055°06'8 8.3 330 / 61010.1 -2.8-6.8 1.9
2017-Jan-23 07:00N 46°24' W 055°18'8 8.3 340 / 71009.7 -2.8-6.8 2.2
2017-Jan-23 06:00N 46°24' W 055°30'1010.2 340 / 91009.8 -2.5-6.1 2.4
2017-Jan-23 05:00N 46°30' W 055°42'8 8.3 010 / 81009.2 -2.3-7.3 2.4
2017-Jan-23 04:00N 46°30' W 055°54'8 8.3 010 / 81009.4 -2.1-5.6 2.4
2017-Jan-23 03:00N 46°30' W 056°06'1010.2 020 / 81009.7 -1.8-5.1 2.4
2017-Jan-23 02:00N 46°36' W 056°18'8 8.2 020 / 91009.1 -1.3-5.1 2.5
2017-Jan-23 01:00N 46°36' W 056°30'1010.2 030 / 101009.0 -1.2-4.7 2.7
2017-Jan-23 00:00N 46°42' W 056°42'8 8.2 040 / 121008.5 -0.8-4.3 2.7
2017-Jan-22 23:00N 46°42' W 056°54'1010.2 040 / 111008.2 -0.8-4.8 2.9
2017-Jan-22 22:00N 46°48' W 057°06'8 8.2 010 / 91007.6 -1.6-4.3 3.0
2017-Jan-22 21:00N 46°48' W 057°18'1010.2 010 / 91006.7 -2.0-4.7 3.2
2017-Jan-22 20:00N 46°54' W 057°30'1413.7 020 / 91006.2 -2.2-5.0 3.2
2017-Jan-22 19:00N 47°00' W 057°48'1413.7 1005.7 -2.2-5.2 3.2
2017-Jan-22 18:00N 47°06' W 058°06'1212.3 350 / 91005.6 -1.8-4.3 3.2
2017-Jan-22 17:00N 47°06' W 058°24'1413.6 350 / 91005.4 -1.7-4.3 3.4
2017-Jan-22 16:00N 47°12' W 058°42'1413.6 330 / 91005.6 -1.8-3.8 3.4
2017-Jan-22 15:00N 47°18' W 059°00'1010.1 350 / 71005.7 -1.8-3.3 3.2
2017-Jan-22 14:00N 47°24' W 059°12'1717.3 340 / 101005.5 -1.2-3.3 3.7
2017-Jan-22 13:00N 47°30' W 059°36'1413.5 1005.4 -1.6-3.2 2.7
2017-Jan-22 12:00N 47°36' W 059°54'1413.5 020 / 101004.2 -1.1-2.3 2.7
2017-Jan-22 11:00N 47°42' W 060°12'1413.5 360 / 81003.8 -1.0-2.3 3.0
2017-Jan-22 10:00N 47°48' W 060°30'1010.0 360 / 81003.5 -1.3-2.3 2.9
2017-Jan-22 09:00N 47°54' W 060°42'1313.5 340 / 81003.6 -1.5-2.8 2.5
2017-Jan-22 08:00N 48°00' W 061°00'1313.4 340 / 91003.4 -1.8-3.2 1.7
2017-Jan-22 07:00N 48°06' W 061°18'1717.0 340 / 91003.2 -2.0-2.7 1.9
2017-Jan-22 06:00N 48°18' W 061°36'1313.4 340 / 81002.7 -2.3-3.1 1.5
2017-Jan-22 05:00N 48°24' W 061°54'2311.6 350 / 81002.9 -2.3-3.6 1.9
2017-Jan-22 03:00N 48°36' W 062°24'1313.3 340 / 51003.3 -1.8-4.6 1.2
2017-Jan-22 02:00N 48°42' W 062°42'1313.3 330 / 91003.2 -1.8-4.3 1.2
2017-Jan-22 01:00N 48°48' W 063°00'1313.3 320 / 91003.4 -1.7-4.5 1.7
2017-Jan-22 00:00N 48°54' W 063°18'1716.8 330 / 91003.5 -2.0-4.5 1.0
2017-Jan-21 23:00N 49°06' W 063°36'1313.2 320 / 91003.6 -2.2-4.5 1.4
2017-Jan-21 22:00N 49°12' W 063°54'1313.2 330 / 71003.5 -2.3-4.8 0.9
2017-Jan-21 21:00N 49°18' W 064°12'1211.7 340 / 31003.7 -2.6-4.8 0.7
2017-Jan-21 20:00N 49°18' W 064°30'2814.0 300 / 21003.7 -2.7-5.2 0.9
2017-Jan-21 18:00N 49°24' W 065°12'1615.6 180 / 21003.5 -2.3-4.8 0.9
2017-Jan-21 17:00N 49°24' W 065°36'1211.7 120 / 61003.9 -2.3-4.0 0.9
2017-Jan-21 16:00N 49°24' W 065°54'1716.7 140 / 31005.0 -2.3-3.5 1.4
2017-Jan-21 15:00N 49°18' W 066°18'2412.1 250 / 71006.4 -1.8-2.3 0.9
2017-Jan-21 13:00N 49°12' W 066°54'1313.2 270 / 21006.9 -1.8-2.5 0.9
2017-Jan-21 12:00N 49°06' W 067°12'1716.8 060 / 41007.0 -1.5-3.3 0.7
2017-Jan-21 11:00N 49°00' W 067°36'10 9.9 170 / 111006.9 -1.5-3.5 1.0
2017-Jan-21 10:00N 48°54' W 067°48'1313.3 200 / 121007.6 -1.0-3.3 1.2
2017-Jan-21 09:00N 48°48' W 068°06'1313.3 160 / 101008.5 -1.0-3.7 1.2
2017-Jan-21 08:00N 48°42' W 068°24'1313.3 180 / 121009.2 -0.3-3.3 2.2
2017-Jan-21 07:00N 48°36' W 068°42'1716.9 160 / 151009.0 -0.5-3.7 2.5
2017-Jan-21 06:00N 48°24' W 069°00'1313.4 150 / 91009.1 0.4-2.7 2.4
2017-Jan-21 05:00N 48°18' W 069°18'1010.0 150 / 121009.2 0.2-2.6 2.2
2017-Jan-21 04:00N 48°12' W 069°30'2019.7 170 / 141009.7 -0.1-1.8 2.4
2017-Jan-21 03:00N 47°54' W 069°42'2221.7 180 / 141009.8 -0.7-2.0 1.2
2017-Jan-21 02:00N 47°36' W 070°00'1717.1 270 / 61010.7 -0.8-2.7 1.5
2017-Jan-21 01:00N 47°24' W 070°18'1717.1 330 / 21011.2 -1.0-2.1 1.2
2017-Jan-21 00:00N 47°12' W 070°36'1514.5 210 / 51012.2 -0.5-1.5 1.4
2017-Jan-20 23:00N 47°00' W 070°48'2020.3 020 / 11012.6 -0.3-1.3 1.5
2017-Jan-20 22:00N 46°48' W 071°12'1413.7 010 / 21012.7 0.4-1.3 1.5
2017-Jan-20 21:00N 46°42' W 071°30'1212.3 070 / 51012.1 0.5-1.6 1.5
2017-Jan-20 20:00N 46°42' W 071°48'1413.7 090 / 61012.1 0.9-2.1 1.5
2017-Jan-20 19:00N 46°36' W 072°06'1717.2 060 / 21012.8 0.4-0.8 1.7
2017-Jan-20 18:00N 46°24' W 072°24'1010.2 320 1013.3 0.5-0.3 1.7
2017-Jan-20 17:00N 46°18' W 072°36'1010.2 110 / 11013.8 0.9 0.2 1.7
2017-Jan-20 16:00N 46°12' W 072°48'2512.3 090 / 51014.4 -0.0-0.3 1.7
2017-Jan-20 14:00N 45°54' W 073°12'2211.0 080 / 31014.6 0.4-0.3 1.7
2017-Jan-20 12:00N 45°36' W 073°30'   150 / 21014.7 1.2-0.1 1.9
2017-Jan-17 11:00N 45°36' W 073°30'2211.0 210 / 11023.2 -1.5-4.5 1.7
2017-Jan-17 09:00N 45°54' W 073°12'1312.7 010 / 11022.6 -0.7-3.8 1.5
2017-Jan-17 08:00N 46°06' W 073°06'1010.3 250 / 61021.8 -1.0-3.8 1.5
2017-Jan-17 07:00N 46°12' W 072°54'14 6.9 270 / 121021.5 -0.8-3.8 1.5
2017-Jan-17 05:00N 46°18' W 072°36'1010.2 250 / 81021.0 -0.5-4.0 1.5
2017-Jan-17 04:00N 46°24' W 072°24'1010.2 240 / 81020.5 -0.3-4.8 1.5
2017-Jan-17 03:00N 46°30' W 072°12'1010.2 240 / 121019.7 -0.0-4.6 1.7
2017-Jan-17 02:00N 46°36' W 072°00'1212.4 240 / 151019.4 0.2-3.8 1.7
2017-Jan-17 01:00N 46°36' W 071°42'2411.9 250 / 151019.2 0.4-4.2 1.9
2017-Jan-16 23:00N 46°48' W 071°12'2020.3 260 / 151017.8 -0.8-4.8 2.7
2017-Jan-16 22:00N 47°00' W 070°48'1514.5 220 / 181015.9 -1.8-5.5 2.9
2017-Jan-16 21:00N 47°12' W 070°36'5317.7 190 / 331012.1 -2.0-5.5 2.4
2017-Jan-16 18:00N 47°54' W 069°48'1414.4 200 / 361009.3 -4.0-6.1 3.0
2017-Jan-16 17:00N 48°06' W 069°36'1414.4 200 / 401008.4 -4.5-6.3 3.9
2017-Jan-16 16:00N 48°18' W 069°24'2713.4 220 / 281014.0 -5.0-7.7 3.4
2017-Jan-16 14:00N 48°36' W 068°54'10 9.9 220 / 371012.5 -7.1-10.3 2.2
2017-Jan-16 13:00N 48°42' W 068°42'1313.3 210 / 251014.5 -7.8-11.2 2.4
2017-Jan-16 12:00N 48°48' W 068°24'1313.3 210 / 301017.2 -11.3-13.6 1.2
2017-Jan-16 11:00N 48°54' W 068°06'1313.3 180 / 171019.9 -11.8-14.3 1.4
2017-Jan-16 10:00N 49°00' W 067°48'1716.8 220 / 191021.0 -11.3-13.8 1.7
2017-Jan-16 09:00N 49°12' W 067°30'1716.8 230 / 121022.6 -13.2-16.5 1.5
2017-Jan-16 08:00N 49°18' W 067°06'3215.9 260 / 151023.4 -14.0-16.8 1.2
2017-Jan-16 06:00N 49°24' W 066°18'3115.6 250 / 211022.6 -13.3-17.8 1.7
2017-Jan-16 04:00N 49°24' W 065°30'1615.6 290 / 191023.2 -12.6-17.1 2.0
2017-Jan-16 03:00N 49°24' W 065°06'1615.6 300 / 201023.7 -12.2-17.0 1.9
2017-Jan-16 02:00N 49°24' W 064°42'2019.5 320 / 181023.7 -11.8-15.3 2.0
2017-Jan-16 01:00N 49°24' W 064°12'1716.7 320 / 191022.8 -11.8-15.3 1.9
2017-Jan-16 00:00N 49°18' W 063°48'1716.8 330 / 181022.0 -12.5-16.5 1.7
2017-Jan-15 23:00N 49°06' W 063°30'8617.2 340 / 221021.4 -12.1-15.6 1.9
2017-Jan-15 18:00N 48°24' W 061°36'2020.0 330 / 231013.8 -8.3-14.3 2.4
2017-Jan-15 17:00N 48°12' W 061°12'1717.1 320 / 201012.3 -8.6-10.8 2.9
2017-Jan-15 16:00N 48°06' W 060°48'2020.0 290 / 151011.7 -8.0-12.7 3.2
2017-Jan-15 15:00N 47°54' W 060°24'1313.5 290 / 231011.3 -7.6-11.1 3.9
2017-Jan-15 14:00N 47°48' W 060°06'2020.1 260 / 201013.6 -6.8-9.0 4.0
2017-Jan-15 13:00N 47°36' W 059°42'1717.3 220 / 131014.5 -6.3-8.7 3.9
2017-Jan-15 12:00N 47°30' W 059°18'1413.6 210 / 141015.2 -7.3-10.1 3.9
2017-Jan-15 11:00N 47°24' W 059°00'1717.3 220 / 151015.6 -7.3-10.6 4.2
2017-Jan-15 10:00N 47°18' W 058°36'1413.6 220 / 151016.3 -6.8-9.8 4.2
2017-Jan-15 09:00N 47°12' W 058°18'1717.4 230 / 171017.0 -6.2-10.6 4.2
2017-Jan-15 08:00N 47°06' W 057°54'1413.7 240 / 191017.3 -6.1-12.0 4.2
2017-Jan-15 07:00N 47°00' W 057°36'1717.4 270 / 251017.8 -6.0-10.3 4.2
2017-Jan-15 06:00N 46°54' W 057°12'1717.5 270 / 261017.7 -6.1-11.3 4.4
2017-Jan-15 05:00N 46°48' W 056°48'1717.2 270 / 261017.8 -6.5-11.8 4.2
2017-Jan-15 04:00N 46°36' W 056°30'1817.6 280 / 311017.7 -6.2-11.1 4.0
2017-Jan-15 03:00N 46°30' W 056°06'1716.5 280 / 271017.3 -5.8-12.7 3.9
2017-Jan-15 02:00N 46°30' W 055°42'1413.8 270 / 271017.5 -5.8-12.0 3.9
2017-Jan-15 01:00N 46°24' W 055°24'3014.8 280 / 261018.1 -6.3-10.8 3.7
2017-Jan-14 23:00N 46°18' W 054°42'1817.6 290 / 351016.9 -5.8-12.2 3.2
2017-Jan-14 22:00N 46°12' W 054°18'1212.5 290 / 341016.2 -6.2-11.1 3.2
2017-Jan-14 21:00N 46°12' W 054°00'1817.7 290 / 371015.2 -6.7-12.7 3.0
2017-Jan-14 20:00N 46°06' W 053°36'1212.5 290 / 401014.9 -6.3-11.8 3.2
2017-Jan-14 19:00N 46°06' W 053°18'1413.9 280 / 411013.0 -6.3-11.0 2.9
2017-Jan-14 18:00N 46°00' W 053°00'7114.2 290 / 361013.3 -5.5-10.8 4.2
2017-Jan-14 13:00N 46°00' W 051°18'1312.5 290 / 351012.6 -3.8-10.2 4.4
2017-Jan-14 12:00N 46°00' W 051°00'1716.7 280 / 361011.3 -3.3-9.3 4.2
2017-Jan-14 11:00N 46°00' W 050°36'1413.9 280 / 381009.7 -2.8-8.2 4.0
2017-Jan-14 10:00N 46°06' W 050°18'1716.6 290 / 421007.8 -2.3-8.8 3.7
2017-Jan-14 09:00N 46°06' W 049°54'3014.9 280 / 401006.5 -1.8-7.7 3.4
2017-Jan-14 07:00N 46°12' W 049°12'1716.6 280 / 381003.1 0.7 0.5 3.2
2017-Jan-14 06:00N 46°12' W 048°48'1716.6 260 / 241003.6 2.7 2.5 2.9
2017-Jan-14 05:00N 46°12' W 048°24'1716.6 230 / 221004.1 2.9 2.9 2.9
2017-Jan-14 04:00N 46°12' W 048°00'1212.5 220 / 201005.2 2.7 2.7 2.7
2017-Jan-14 03:00N 46°12' W 047°42'1817.6 200 / 161006.7 3.2 3.0 2.7
2017-Jan-14 02:00N 46°18' W 047°18'1716.6 190 / 161008.3 4.4 4.4 2.5
2017-Jan-14 01:00N 46°18' W 046°54'1716.6 200 / 171010.0 6.0 5.9 5.4
2017-Jan-14 00:00N 46°18' W 046°30'1716.6 200 / 161011.6 6.4 6.2 6.0
2017-Jan-13 23:00N 46°18' W 046°06'1716.6 190 / 151012.9 6.5 5.9 6.0
2017-Jan-13 22:00N 46°18' W 045°42'1716.6 190 / 141014.7 6.2 4.9 5.4
2017-Jan-13 21:00N 46°18' W 045°18'1716.6 200 / 181015.2 6.2 3.9 6.4
2017-Jan-13 20:00N 46°18' W 044°54'3014.8 230 / 201016.0 6.5 3.2 6.9
2017-Jan-13 18:00N 46°24' W 044°12'1817.6 250 / 121017.0 5.2 5.2 8.2
2017-Jan-13 17:00N 46°30' W 043°48'1716.5 280 / 141017.5 5.7 5.4 7.9
2017-Jan-13 16:00N 46°30' W 043°24'   280 / 101018.0 6.0 5.9 8.2

Dump ship's entire track history